createdAt,value
2018-07-19T00:01:48.576Z,21.90
2018-07-19T00:04:15.516Z,21.80
2018-07-19T00:06:42.389Z,21.80
2018-07-19T00:09:10.122Z,21.70
2018-07-19T00:11:37.009Z,21.70
2018-07-19T00:14:04.016Z,21.60
2018-07-19T00:16:30.912Z,21.70
2018-07-19T00:18:57.930Z,21.70
2018-07-19T00:21:24.792Z,21.70
2018-07-19T00:23:51.753Z,21.70
2018-07-19T00:26:18.616Z,21.60
2018-07-19T00:28:45.584Z,21.60
2018-07-19T00:31:12.466Z,21.60
2018-07-19T00:33:39.327Z,21.50
2018-07-19T00:36:07.015Z,21.50
2018-07-19T00:38:33.929Z,21.40
2018-07-19T00:41:00.927Z,21.40
2018-07-19T00:43:27.816Z,21.40
2018-07-19T00:45:54.756Z,21.40
2018-07-19T00:48:21.627Z,21.40
2018-07-19T00:50:48.613Z,21.40
2018-07-19T00:53:15.516Z,21.30
2018-07-19T00:55:43.189Z,21.30
2018-07-19T00:58:10.081Z,21.20
2018-07-19T01:00:37.033Z,21.20
2018-07-19T01:03:04.000Z,21.20
2018-07-19T01:05:30.991Z,21.30
2018-07-19T01:07:57.850Z,21.20
2018-07-19T01:10:24.773Z,21.20
2018-07-19T01:12:51.616Z,21.20
2018-07-19T01:15:18.617Z,21.20
2018-07-19T01:17:45.555Z,21.20
2018-07-19T01:20:12.502Z,21.20
2018-07-19T01:22:40.228Z,21.10
2018-07-19T01:25:07.177Z,21.10
2018-07-19T01:27:34.041Z,21.10
2018-07-19T01:30:01.017Z,21.10
2018-07-19T01:32:27.876Z,21.10
2018-07-19T01:34:54.807Z,21.10
2018-07-19T01:37:21.673Z,21.00
2018-07-19T01:39:49.346Z,21.00
2018-07-19T01:42:25.155Z,20.90
2018-07-19T01:44:52.098Z,20.90
2018-07-19T01:47:19.755Z,20.90
2018-07-19T01:49:46.689Z,20.90
2018-07-19T01:52:13.588Z,20.80
2018-07-19T01:54:40.521Z,20.80
2018-07-19T01:57:07.496Z,20.90
2018-07-19T01:59:34.385Z,20.80
2018-07-19T02:02:01.321Z,20.80
2018-07-19T02:04:28.195Z,20.70
2018-07-19T02:06:55.180Z,20.60
2018-07-19T02:09:22.777Z,20.50
2018-07-19T02:11:49.713Z,20.50
2018-07-19T02:14:16.625Z,20.50
2018-07-19T02:16:43.592Z,20.50
2018-07-19T02:19:10.463Z,20.50
2018-07-19T02:21:37.401Z,20.50
2018-07-19T02:24:04.378Z,20.40
2018-07-19T02:26:31.428Z,20.40
2018-07-19T02:28:58.289Z,20.40
2018-07-19T02:31:25.264Z,20.40
2018-07-19T02:33:52.148Z,20.40
2018-07-19T02:36:19.070Z,20.40
2018-07-19T02:38:45.965Z,20.30
2018-07-19T02:41:13.006Z,20.30
2018-07-19T02:43:39.869Z,20.30
2018-07-19T02:46:06.836Z,20.10
2018-07-19T02:48:33.713Z,20.10
2018-07-19T02:51:00.641Z,20.10
2018-07-19T02:53:27.516Z,20.00
2018-07-19T02:55:54.435Z,20.10
2018-07-19T02:58:21.292Z,20.00
2018-07-19T03:00:48.229Z,20.00
2018-07-19T03:03:15.132Z,19.90
2018-07-19T03:05:42.094Z,19.90
2018-07-19T03:08:09.687Z,19.90
2018-07-19T03:10:36.618Z,19.90
2018-07-19T03:13:03.472Z,19.80
2018-07-19T03:15:30.405Z,19.80
2018-07-19T03:17:57.269Z,19.70
2018-07-19T03:20:24.358Z,19.60
2018-07-19T03:22:51.309Z,19.60
2018-07-19T03:25:18.153Z,19.70
2018-07-19T03:27:45.104Z,19.70
2018-07-19T03:30:11.975Z,19.60
2018-07-19T03:32:38.896Z,19.60
2018-07-19T03:35:05.812Z,19.70
2018-07-19T03:37:32.729Z,19.70
2018-07-19T03:39:59.606Z,19.70
2018-07-19T03:42:26.574Z,19.80
2018-07-19T03:44:53.421Z,19.80
2018-07-19T03:47:21.100Z,19.60
2018-07-19T03:49:48.016Z,19.50
2018-07-19T03:52:14.946Z,19.60
2018-07-19T03:54:41.825Z,19.60
2018-07-19T03:57:08.796Z,19.60
2018-07-19T03:59:35.660Z,19.70
2018-07-19T04:02:02.682Z,19.60
2018-07-19T04:04:30.313Z,19.70
2018-07-19T04:06:57.236Z,19.70
2018-07-19T04:09:24.097Z,19.60
2018-07-19T04:11:51.033Z,19.70
2018-07-19T04:14:17.927Z,19.60
2018-07-19T04:16:44.848Z,19.60
2018-07-19T04:19:12.463Z,19.60
2018-07-19T04:21:39.380Z,19.60
2018-07-19T04:24:06.354Z,19.50
2018-07-19T04:26:34.760Z,19.70
2018-07-19T04:29:08.174Z,19.80
2018-07-19T04:31:35.136Z,19.80
2018-07-19T04:34:02.029Z,20.10
2018-07-19T04:36:29.004Z,20.20
2018-07-19T04:38:55.863Z,20.40
2018-07-19T04:41:22.875Z,20.20
2018-07-19T04:43:50.624Z,20.30
2018-07-19T04:46:17.519Z,20.30
2018-07-19T04:48:45.185Z,21.60
2018-07-19T04:51:12.091Z,21.60
2018-07-19T04:53:39.013Z,23.30
2018-07-19T04:56:05.875Z,24.70
2018-07-19T04:58:32.809Z,25.80
2018-07-19T05:00:59.744Z,27.20
2018-07-19T05:03:26.659Z,28.10
2018-07-19T05:05:53.528Z,28.70
2018-07-19T05:08:20.469Z,28.00
2018-07-19T05:10:47.376Z,29.80
2018-07-19T05:13:14.330Z,30.70
2018-07-19T05:15:41.200Z,31.80
2018-07-19T05:18:08.126Z,32.70
2018-07-19T05:20:35.064Z,33.20
2018-07-19T05:23:01.981Z,32.80
2018-07-19T05:25:28.991Z,32.70
2018-07-19T05:27:55.908Z,32.20
2018-07-19T05:30:22.808Z,31.10
2018-07-19T05:32:49.744Z,29.90
2018-07-19T05:35:16.609Z,28.40
2018-07-19T05:37:43.560Z,29.30
2018-07-19T05:40:11.234Z,27.90
2018-07-19T05:42:38.232Z,27.90
2018-07-19T05:45:05.137Z,27.70
2018-07-19T05:47:32.061Z,28.90
2018-07-19T05:49:58.916Z,27.10
2018-07-19T05:52:26.639Z,25.30
2018-07-19T05:54:53.516Z,25.30
2018-07-19T05:57:20.437Z,24.70
2018-07-19T05:59:47.361Z,24.80
2018-07-19T06:02:14.964Z,24.60
2018-07-19T06:04:41.887Z,24.50
2018-07-19T06:07:08.842Z,24.90
2018-07-19T06:09:35.789Z,24.90
2018-07-19T06:12:02.704Z,23.70
2018-07-19T06:14:29.629Z,23.60
2018-07-19T06:16:56.552Z,23.00
2018-07-19T06:19:23.533Z,22.40
2018-07-19T06:21:51.132Z,23.00
2018-07-19T06:24:18.137Z,23.00
2018-07-19T06:26:45.065Z,23.00
2018-07-19T06:29:11.984Z,22.80
2018-07-19T06:31:38.926Z,23.00
2018-07-19T06:34:05.881Z,23.00
2018-07-19T06:36:32.761Z,23.10
2018-07-19T06:38:59.735Z,23.00
2018-07-19T06:41:26.693Z,23.30
2018-07-19T06:43:53.623Z,23.50
2018-07-19T06:46:20.572Z,23.70
2018-07-19T06:48:47.510Z,23.00
2018-07-19T06:51:14.442Z,23.10
2018-07-19T06:53:41.417Z,23.30
2018-07-19T06:56:08.312Z,23.10
2018-07-19T06:58:35.251Z,23.20
2018-07-19T07:01:02.980Z,23.60
2018-07-19T07:03:29.933Z,23.50
2018-07-19T07:05:56.827Z,23.30
2018-07-19T07:08:24.505Z,22.90
2018-07-19T07:10:51.403Z,22.90
2018-07-19T07:13:18.352Z,22.80
2018-07-19T07:15:45.224Z,22.70
2018-07-19T07:18:12.144Z,22.70
2018-07-19T07:20:39.105Z,22.80
2018-07-19T07:23:06.095Z,23.10
2018-07-19T07:25:33.796Z,23.20
2018-07-19T07:28:00.669Z,23.20
2018-07-19T07:30:27.620Z,23.20
2018-07-19T07:32:55.232Z,23.70
2018-07-19T07:35:22.180Z,23.80
2018-07-19T07:37:49.068Z,24.00
2018-07-19T07:40:16.777Z,24.50
2018-07-19T07:42:43.709Z,24.50
2018-07-19T07:45:10.679Z,24.50
2018-07-19T07:47:37.565Z,24.60
2018-07-19T07:50:04.526Z,24.50
2018-07-19T07:52:31.462Z,24.00
2018-07-19T07:54:58.383Z,24.80
2018-07-19T07:57:25.292Z,24.80
2018-07-19T07:59:52.242Z,25.00
2018-07-19T08:02:19.145Z,25.00
2018-07-19T08:04:46.092Z,25.50
2018-07-19T08:07:12.967Z,25.80
2018-07-19T08:09:39.942Z,25.50
2018-07-19T08:12:06.861Z,25.00
2018-07-19T08:14:33.831Z,25.50
2018-07-19T08:17:00.750Z,26.10
2018-07-19T08:19:27.687Z,27.00
2018-07-19T08:21:54.568Z,30.30
2018-07-19T08:24:21.537Z,30.50
2018-07-19T08:26:48.541Z,30.70
2018-07-19T08:29:15.500Z,30.60
2018-07-19T08:31:42.423Z,32.20
2018-07-19T08:34:09.354Z,34.20
2018-07-19T08:36:36.996Z,31.50
2018-07-19T08:39:04.080Z,31.40
2018-07-19T08:41:31.022Z,31.70
2018-07-19T08:43:58.705Z,32.20
2018-07-19T08:46:25.659Z,32.20
2018-07-19T08:48:52.536Z,33.70
2018-07-19T08:51:19.476Z,33.60
2018-07-19T08:53:46.416Z,34.00
2018-07-19T08:56:13.373Z,34.10
2018-07-19T08:58:40.240Z,34.10
2018-07-19T09:01:07.248Z,34.70
2018-07-19T09:03:34.135Z,34.70
2018-07-19T09:06:01.104Z,34.20
2018-07-19T09:08:28.044Z,33.30
2018-07-19T09:10:55.716Z,32.90
2018-07-19T09:13:22.589Z,32.90
2018-07-19T09:15:49.536Z,32.90
2018-07-19T09:18:16.469Z,33.60
2018-07-19T09:20:43.407Z,33.10
2018-07-19T09:23:10.273Z,31.40
2018-07-19T09:25:37.221Z,31.40
2018-07-19T09:28:04.175Z,32.30
2018-07-19T09:30:31.091Z,32.30
2018-07-19T09:32:58.018Z,32.40
2018-07-19T09:35:25.013Z,33.10
2018-07-19T09:37:51.924Z,33.10
2018-07-19T09:40:18.868Z,32.70
2018-07-19T09:42:46.557Z,34.00
2018-07-19T09:45:13.495Z,34.00
2018-07-19T09:47:40.420Z,32.70
2018-07-19T09:50:07.357Z,33.80
2018-07-19T09:52:35.001Z,33.70
2018-07-19T09:55:02.002Z,33.70
2018-07-19T09:57:28.865Z,32.50
2018-07-19T09:59:55.813Z,32.60
2018-07-19T10:02:22.693Z,32.00
2018-07-19T10:04:49.596Z,33.20
2018-07-19T10:07:16.553Z,32.60
2018-07-19T10:09:43.446Z,33.80
2018-07-19T10:12:10.374Z,32.90
2018-07-19T10:14:37.308Z,33.00
2018-07-19T10:17:04.320Z,32.40
2018-07-19T10:19:31.199Z,32.50
2018-07-19T10:21:58.136Z,32.40
2018-07-19T10:24:25.049Z,31.10
2018-07-19T10:26:52.000Z,31.70
2018-07-19T10:29:18.948Z,32.40
2018-07-19T10:31:45.883Z,33.00
2018-07-19T10:34:12.769Z,33.10
2018-07-19T10:36:39.769Z,33.70
2018-07-19T10:39:06.729Z,33.90
2018-07-19T10:41:33.741Z,34.30
2018-07-19T10:44:00.620Z,33.80
2018-07-19T10:46:27.531Z,33.40
2018-07-19T10:48:54.438Z,33.60
2018-07-19T10:51:21.368Z,32.90
2018-07-19T10:53:48.205Z,33.60
2018-07-19T10:56:15.144Z,33.80
2018-07-19T10:58:42.000Z,34.30
2018-07-19T11:01:08.916Z,34.10
2018-07-19T11:03:35.781Z,33.60
2018-07-19T11:06:02.797Z,34.00
2018-07-19T11:08:29.645Z,34.00
2018-07-19T11:10:56.553Z,34.50
2018-07-19T11:13:23.404Z,33.80
2018-07-19T11:15:50.309Z,34.10
2018-07-19T11:18:17.148Z,34.20
2018-07-19T11:20:44.051Z,33.70
2018-07-19T11:23:10.922Z,33.40
2018-07-19T11:25:37.868Z,33.40
2018-07-19T11:28:04.801Z,33.00
2018-07-19T11:30:32.404Z,33.00
2018-07-19T11:32:59.317Z,32.90
2018-07-19T11:35:26.930Z,32.80
2018-07-19T11:37:53.843Z,32.80
2018-07-19T11:40:20.697Z,32.80
2018-07-19T11:42:47.677Z,32.90
2018-07-19T11:45:14.525Z,33.20
2018-07-19T11:47:41.436Z,32.00
2018-07-19T11:50:08.335Z,32.90
2018-07-19T11:52:35.980Z,32.90
2018-07-19T11:55:02.922Z,32.90
2018-07-19T11:57:29.848Z,31.90
2018-07-19T11:59:56.716Z,32.50
2018-07-19T12:02:23.636Z,32.50
2018-07-19T12:04:50.493Z,32.40
2018-07-19T12:07:17.466Z,31.70
2018-07-19T12:09:44.335Z,31.90
2018-07-19T12:12:11.277Z,31.80
2018-07-19T12:14:38.135Z,32.20
2018-07-19T12:17:05.067Z,31.60
2018-07-19T12:19:31.966Z,30.70
2018-07-19T12:21:58.905Z,30.60
2018-07-19T12:24:25.761Z,31.00
2018-07-19T12:26:52.665Z,31.50
2018-07-19T12:29:19.569Z,31.90
2018-07-19T12:31:47.280Z,32.00
2018-07-19T12:34:14.135Z,31.90
2018-07-19T12:36:41.033Z,32.20
2018-07-19T12:39:08.652Z,31.00
2018-07-19T12:41:35.625Z,31.00
2018-07-19T12:44:02.501Z,31.50
2018-07-19T12:46:29.365Z,32.20
2018-07-19T12:48:56.307Z,32.70
2018-07-19T12:51:23.212Z,32.60
2018-07-19T12:53:50.137Z,32.50
2018-07-19T12:56:16.993Z,32.80
2018-07-19T12:58:43.904Z,33.00
2018-07-19T13:01:10.773Z,32.80
2018-07-19T13:03:37.730Z,32.70
2018-07-19T13:06:04.627Z,32.60
2018-07-19T13:08:31.621Z,32.80
2018-07-19T13:10:58.511Z,33.10
2018-07-19T13:13:25.431Z,33.00
2018-07-19T13:15:53.032Z,32.90
2018-07-19T13:18:19.953Z,32.90
2018-07-19T13:20:46.809Z,33.00
2018-07-19T13:23:13.740Z,33.20
2018-07-19T13:25:40.589Z,33.30
2018-07-19T13:28:07.551Z,33.40
2018-07-19T13:30:34.429Z,33.50
2018-07-19T13:33:01.364Z,33.60
2018-07-19T13:35:28.239Z,33.70
2018-07-19T13:37:55.179Z,33.60
2018-07-19T13:40:22.135Z,33.60
2018-07-19T13:42:49.114Z,33.50
2018-07-19T13:45:16.457Z,33.20
2018-07-19T13:47:43.419Z,33.30
2018-07-19T13:50:10.328Z,32.90
2018-07-19T13:52:37.377Z,33.00
2018-07-19T13:55:04.278Z,33.20
2018-07-19T13:57:31.134Z,33.30
2018-07-19T13:59:58.062Z,33.30
2018-07-19T14:02:24.926Z,33.00
2018-07-19T14:04:51.841Z,33.00
2018-07-19T14:07:18.690Z,33.00
2018-07-19T14:09:45.616Z,33.00
2018-07-19T14:12:12.479Z,33.10
2018-07-19T14:14:39.428Z,33.30
2018-07-19T14:17:06.291Z,32.70
2018-07-19T14:19:33.229Z,32.80
2018-07-19T14:22:00.142Z,32.90
2018-07-19T14:24:27.073Z,33.00
2018-07-19T14:26:54.724Z,33.00
2018-07-19T14:29:21.650Z,33.00
2018-07-19T14:31:48.517Z,32.70
2018-07-19T14:34:15.492Z,31.40
2018-07-19T14:36:42.385Z,31.60
2018-07-19T14:39:09.369Z,31.70
2018-07-19T14:41:37.025Z,32.10
2018-07-19T14:44:03.991Z,32.10
2018-07-19T14:46:30.855Z,31.90
2018-07-19T14:48:57.799Z,31.60
2018-07-19T14:51:24.677Z,31.60
2018-07-19T14:53:51.614Z,31.80
2018-07-19T14:56:18.465Z,32.10
2018-07-19T14:58:45.388Z,32.20
2018-07-19T15:01:12.262Z,32.20
2018-07-19T15:03:39.188Z,32.10
2018-07-19T15:06:06.068Z,32.20
2018-07-19T15:08:33.725Z,32.30
2018-07-19T15:11:00.600Z,32.30
2018-07-19T15:13:27.520Z,32.30
2018-07-19T15:15:55.145Z,32.10
2018-07-19T15:18:22.033Z,32.10
2018-07-19T15:20:49.707Z,30.80
2018-07-19T15:23:16.577Z,30.80
2018-07-19T15:25:43.492Z,31.30
2018-07-19T15:28:10.389Z,30.80
2018-07-19T15:30:37.301Z,30.40
2018-07-19T15:33:04.225Z,30.90
2018-07-19T15:35:31.885Z,31.00
2018-07-19T15:37:58.747Z,31.00
2018-07-19T15:40:25.668Z,31.00
2018-07-19T15:42:52.581Z,31.00
2018-07-19T15:45:19.528Z,31.10
2018-07-19T15:47:46.384Z,31.00
2018-07-19T15:50:13.300Z,31.00
2018-07-19T15:52:40.172Z,30.60
2018-07-19T15:55:07.148Z,30.50
2018-07-19T15:57:34.783Z,30.80
2018-07-19T16:00:01.700Z,30.80
2018-07-19T16:02:28.576Z,30.50
2018-07-19T16:04:55.493Z,30.60
2018-07-19T16:07:22.358Z,30.80
2018-07-19T16:09:49.264Z,30.80
2018-07-19T16:12:16.150Z,30.80
2018-07-19T16:14:43.081Z,30.70
2018-07-19T16:17:09.944Z,30.10
2018-07-19T16:19:36.853Z,30.20
2018-07-19T16:22:03.717Z,30.30
2018-07-19T16:24:30.665Z,30.50
2018-07-19T16:26:57.542Z,30.70
2018-07-19T16:29:24.464Z,30.90
2018-07-19T16:31:51.319Z,30.90
2018-07-19T16:34:18.259Z,30.90
2018-07-19T16:36:45.113Z,31.10
2018-07-19T16:39:11.973Z,31.10
2018-07-19T16:41:39.704Z,31.00
2018-07-19T16:44:06.581Z,31.00
2018-07-19T16:46:34.266Z,30.90
2018-07-19T16:49:01.130Z,30.90
2018-07-19T16:51:28.072Z,30.70
2018-07-19T16:53:54.911Z,30.30
2018-07-19T16:56:21.850Z,30.20
2018-07-19T16:58:48.744Z,30.30
2018-07-19T17:01:15.647Z,30.30
2018-07-19T17:03:42.508Z,30.20
2018-07-19T17:06:10.200Z,30.00
2018-07-19T17:08:37.085Z,30.00
2018-07-19T17:11:04.065Z,30.10
2018-07-19T17:13:30.976Z,29.80
2018-07-19T17:15:57.914Z,29.90
2018-07-19T17:18:25.524Z,30.20
2018-07-19T17:20:52.437Z,30.20
2018-07-19T17:23:19.305Z,30.20
2018-07-19T17:25:46.249Z,30.00
2018-07-19T17:28:13.116Z,29.90
2018-07-19T17:30:40.052Z,29.90
2018-07-19T17:33:06.901Z,29.90
2018-07-19T17:35:33.800Z,29.80
2018-07-19T17:38:07.685Z,29.80
2018-07-19T17:40:34.674Z,29.90
2018-07-19T17:43:01.648Z,29.50
2018-07-19T17:45:28.588Z,29.60
2018-07-19T17:47:55.441Z,29.70
2018-07-19T17:50:22.389Z,29.60
2018-07-19T17:52:49.300Z,29.60
2018-07-19T17:55:16.216Z,29.70
2018-07-19T17:57:43.849Z,29.70
2018-07-19T18:00:10.770Z,29.60
2018-07-19T18:02:37.644Z,29.60
2018-07-19T18:05:04.544Z,29.60
2018-07-19T18:07:31.460Z,29.50
2018-07-19T18:09:59.055Z,29.30
2018-07-19T18:12:25.976Z,29.30
2018-07-19T18:14:53.557Z,29.10
2018-07-19T18:17:20.473Z,29.10
2018-07-19T18:19:48.056Z,29.00
2018-07-19T18:22:15.032Z,29.00
2018-07-19T18:24:41.897Z,28.80
2018-07-19T18:27:08.805Z,28.70
2018-07-19T18:29:35.672Z,28.70
2018-07-19T18:32:02.596Z,28.60
2018-07-19T18:34:29.447Z,28.50
2018-07-19T18:36:56.360Z,28.40
2018-07-19T18:39:23.952Z,28.20
2018-07-19T18:41:50.933Z,28.10
2018-07-19T18:44:17.781Z,28.20
2018-07-19T18:46:44.717Z,28.10
2018-07-19T18:49:11.573Z,28.10
2018-07-19T18:51:38.496Z,28.00
2018-07-19T18:54:05.396Z,27.90
2018-07-19T18:56:32.324Z,27.90
2018-07-19T18:58:59.167Z,27.80
2018-07-19T19:01:26.114Z,27.80
2018-07-19T19:03:53.709Z,27.60
2018-07-19T19:06:20.628Z,27.60
2018-07-19T19:08:47.494Z,27.60
2018-07-19T19:11:14.413Z,27.50
2018-07-19T19:13:42.012Z,27.40
2018-07-19T19:16:08.969Z,27.30
2018-07-19T19:18:35.889Z,27.30
2018-07-19T19:21:02.823Z,27.20
2018-07-19T19:23:29.733Z,27.10
2018-07-19T19:25:56.749Z,27.10
2018-07-19T19:28:23.658Z,27.00
2018-07-19T19:30:50.529Z,26.90
2018-07-19T19:33:17.439Z,26.80
2018-07-19T19:35:45.033Z,26.70
2018-07-19T19:38:11.982Z,26.60
2018-07-19T19:40:39.011Z,26.60
2018-07-19T19:43:06.004Z,26.50
2018-07-19T19:45:32.845Z,26.20
2018-07-19T19:47:59.873Z,26.00
2018-07-19T19:50:26.733Z,25.80
2018-07-19T19:52:53.655Z,25.50
2018-07-19T19:55:20.528Z,25.40
2018-07-19T19:57:47.466Z,25.30
2018-07-19T20:00:14.340Z,25.20
2018-07-19T20:02:41.248Z,25.10
2018-07-19T20:05:08.109Z,25.00
2018-07-19T20:07:35.038Z,24.90
2018-07-19T20:10:01.945Z,24.80
2018-07-19T20:12:28.880Z,24.70
2018-07-19T20:14:56.468Z,24.60
2018-07-19T20:17:23.389Z,24.60
2018-07-19T20:19:50.988Z,24.40
2018-07-19T20:22:17.896Z,24.40
2018-07-19T20:24:45.522Z,24.20
2018-07-19T20:27:12.476Z,24.20
2018-07-19T20:29:39.353Z,24.10
2018-07-19T20:32:07.041Z,24.00
2018-07-19T20:34:33.922Z,23.90
2018-07-19T20:37:00.856Z,24.00
2018-07-19T20:39:27.721Z,24.00
2018-07-19T20:41:54.648Z,23.80
2018-07-19T20:44:21.573Z,23.80
2018-07-19T20:46:48.510Z,23.70
2018-07-19T20:49:15.432Z,23.70
2018-07-19T20:51:43.056Z,23.50
2018-07-19T20:54:09.971Z,23.50
2018-07-19T20:56:36.838Z,23.60
2018-07-19T20:59:03.770Z,23.50
2018-07-19T21:01:30.641Z,23.50
2018-07-19T21:03:57.555Z,23.50
2018-07-19T21:06:24.430Z,23.40
2018-07-19T21:08:51.360Z,23.30
2018-07-19T21:11:18.292Z,23.30
2018-07-19T21:13:45.252Z,23.20
2018-07-19T21:16:12.105Z,23.10
2018-07-19T21:18:39.021Z,23.20
2018-07-19T21:21:05.884Z,23.20
2018-07-19T21:23:32.814Z,23.10
2018-07-19T21:25:59.672Z,23.10
2018-07-19T21:28:26.589Z,23.00
2018-07-19T21:30:53.447Z,22.90
2018-07-19T21:33:20.364Z,22.80
2018-07-19T21:35:47.976Z,22.70
2018-07-19T21:38:14.889Z,22.70
2018-07-19T21:40:41.742Z,22.70
2018-07-19T21:43:08.721Z,22.60
2018-07-19T21:45:35.570Z,22.60
2018-07-19T21:48:02.530Z,22.50
2018-07-19T21:50:30.137Z,22.40
2018-07-19T21:52:57.053Z,22.40
2018-07-19T21:55:24.657Z,22.30
2018-07-19T21:57:51.499Z,22.20
2018-07-19T22:00:18.445Z,22.20
2018-07-19T22:02:45.315Z,22.20
2018-07-19T22:05:12.304Z,22.20
2018-07-19T22:07:39.168Z,22.20
2018-07-19T22:10:06.137Z,22.20
2018-07-19T22:12:33.784Z,22.10
2018-07-19T22:15:00.689Z,22.10
2018-07-19T22:17:28.293Z,22.00
2018-07-19T22:19:55.198Z,22.00
2018-07-19T22:22:22.809Z,21.90
2018-07-19T22:24:49.842Z,21.90
2018-07-19T22:27:16.708Z,21.90
2018-07-19T22:29:43.627Z,22.00
2018-07-19T22:32:10.493Z,22.00
2018-07-19T22:34:37.411Z,22.00
2018-07-19T22:37:04.312Z,22.00
2018-07-19T22:39:31.228Z,22.00
2018-07-19T22:41:58.072Z,21.90
2018-07-19T22:44:25.050Z,22.00
2018-07-19T22:46:51.903Z,21.90
2018-07-19T22:49:19.620Z,21.80
2018-07-19T22:51:46.478Z,21.80
2018-07-19T22:54:13.398Z,21.80
2018-07-19T22:56:40.269Z,21.70
2018-07-19T22:59:07.181Z,21.70
2018-07-19T23:01:34.067Z,21.80
2018-07-19T23:04:00.976Z,21.80
2018-07-19T23:06:27.895Z,21.70
2018-07-19T23:08:54.824Z,21.70
2018-07-19T23:11:22.416Z,21.70
2018-07-19T23:13:49.315Z,21.60
2018-07-19T23:16:16.160Z,21.60
2018-07-19T23:18:43.008Z,21.60
2018-07-19T23:21:09.912Z,21.60
2018-07-19T23:23:36.752Z,21.50
2018-07-19T23:26:03.736Z,21.50
2018-07-19T23:28:30.679Z,21.40
2018-07-19T23:30:57.660Z,21.40
2018-07-19T23:33:25.332Z,21.30
2018-07-19T23:35:53.052Z,21.20
2018-07-19T23:38:19.986Z,21.20
2018-07-19T23:40:46.973Z,21.20
2018-07-19T23:43:14.706Z,21.10
2018-07-19T23:45:41.685Z,21.10
2018-07-19T23:48:09.362Z,21.10
2018-07-19T23:50:36.280Z,21.10
2018-07-19T23:53:03.128Z,21.00
2018-07-19T23:55:30.037Z,21.00
2018-07-19T23:57:56.913Z,20.90
